Time,TemperatureF,DewpointF,PressureIn,WindDirection,WindDirectionDegrees,WindSpeedMPH,WindSpeedGustMPH,Humidity,HourlyPrecipIn,Conditions,Clouds,dailyrainin,SoftwareType,DateUTC
2017-05-29 00:03:00,74.7,73.4,29.96,NE,53,0.0,0.0,96,0.00,,,0.00,meteobridge,2017-05-29 05:03:00,
2017-05-29 00:08:00,74.7,73.4,29.96,NE,53,0.0,0.0,96,0.00,,,0.00,meteobridge,2017-05-29 05:08:00,
2017-05-29 00:13:00,74.5,73.2,29.96,NE,53,0.0,0.0,96,0.00,,,0.00,meteobridge,2017-05-29 05:13:00,
2017-05-29 00:18:00,74.5,73.2,29.96,NE,53,0.0,0.0,96,0.00,,,0.00,meteobridge,2017-05-29 05:18:00,
2017-05-29 00:23:00,74.3,73.0,29.96,NE,53,0.0,0.0,96,0.00,,,0.00,meteobridge,2017-05-29 05:23:00,
2017-05-29 00:28:00,74.1,72.9,29.96,NE,53,0.0,0.0,96,0.00,,,0.00,meteobridge,2017-05-29 05:28:00,
2017-05-29 00:33:00,74.1,72.9,29.96,NE,53,0.0,0.0,96,0.00,,,0.00,meteobridge,2017-05-29 05:33:00,
2017-05-29 00:38:00,73.9,72.7,29.96,NE,53,0.0,0.0,96,0.00,,,0.00,meteobridge,2017-05-29 05:38:00,
2017-05-29 00:43:00,73.9,72.7,29.96,NE,53,0.0,0.0,96,0.00,,,0.00,meteobridge,2017-05-29 05:43:00,
2017-05-29 00:49:00,73.9,72.7,29.97,NE,53,0.0,0.0,96,0.00,,,0.00,meteobridge,2017-05-29 05:49:00,
2017-05-29 00:54:00,73.8,72.5,29.97,NE,53,0.0,0.0,96,0.00,,,0.00,meteobridge,2017-05-29 05:54:00,
2017-05-29 00:59:00,73.8,72.5,29.97,NE,53,0.0,0.0,96,0.00,,,0.00,meteobridge,2017-05-29 05:59:00,
2017-05-29 01:04:00,73.6,72.3,29.97,NE,53,0.0,0.0,96,0.00,,,0.00,meteobridge,2017-05-29 06:04:00,
2017-05-29 01:09:00,73.6,72.3,29.98,NE,53,0.0,0.0,96,0.00,,,0.00,meteobridge,2017-05-29 06:09:00,
2017-05-29 01:14:00,73.6,72.3,29.98,NE,53,0.0,0.0,96,0.00,,,0.00,meteobridge,2017-05-29 06:14:00,
2017-05-29 01:19:00,73.4,72.5,29.98,NE,53,0.0,0.0,97,0.00,,,0.00,meteobridge,2017-05-29 06:19:00,
2017-05-29 01:24:00,73.2,72.0,29.97,NE,53,0.0,0.0,96,0.00,,,0.00,meteobridge,2017-05-29 06:24:00,
2017-05-29 01:29:00,73.2,72.3,29.97,NE,53,0.0,0.0,97,0.00,,,0.00,meteobridge,2017-05-29 06:29:00,
2017-05-29 01:34:00,73.2,72.3,29.97,NE,53,0.0,0.0,97,0.00,,,0.00,meteobridge,2017-05-29 06:34:00,
2017-05-29 01:39:00,73.2,72.3,29.97,NE,53,0.0,0.0,97,0.00,,,0.00,meteobridge,2017-05-29 06:39:00,
2017-05-29 01:44:00,73.4,72.5,29.97,NE,53,0.0,0.0,97,0.00,,,0.00,meteobridge,2017-05-29 06:44:00,
2017-05-29 01:49:00,73.4,72.5,29.97,NE,53,0.0,0.0,97,0.00,,,0.00,meteobridge,2017-05-29 06:49:00,
2017-05-29 01:54:00,73.6,72.7,29.97,NE,53,0.0,0.0,97,0.00,,,0.00,meteobridge,2017-05-29 06:54:00,
2017-05-29 01:59:00,73.6,72.7,29.97,NE,53,0.0,0.0,97,0.00,,,0.00,meteobridge,2017-05-29 06:59:00,
2017-05-29 02:04:00,73.4,72.5,29.96,NE,53,0.0,0.0,97,0.00,,,0.00,meteobridge,2017-05-29 07:04:00,
2017-05-29 02:09:00,73.4,72.5,29.96,NE,53,0.0,0.0,97,0.00,,,0.00,meteobridge,2017-05-29 07:09:00,
2017-05-29 02:14:00,73.4,72.5,29.96,NE,53,0.0,0.0,97,0.00,,,0.00,meteobridge,2017-05-29 07:14:00,
2017-05-29 02:25:00,73.4,72.5,29.96,NE,53,0.0,0.0,97,0.00,,,0.00,meteobridge,2017-05-29 07:25:00,
2017-05-29 02:30:00,73.4,72.5,29.96,NE,53,0.0,0.0,97,0.00,,,0.00,meteobridge,2017-05-29 07:30:00,
2017-05-29 02:35:00,73.2,72.3,29.95,NE,53,0.0,0.0,97,0.00,,,0.00,meteobridge,2017-05-29 07:35:00,
2017-05-29 02:40:00,73.2,72.3,29.95,NE,53,0.0,0.0,97,0.00,,,0.00,meteobridge,2017-05-29 07:40:00,
2017-05-29 02:45:00,73.4,72.5,29.95,NE,53,0.0,0.0,97,0.00,,,0.00,meteobridge,2017-05-29 07:45:00,
2017-05-29 02:50:00,73.4,72.5,29.95,NE,53,0.0,0.0,97,0.00,,,0.00,meteobridge,2017-05-29 07:50:00,
2017-05-29 02:55:00,73.4,72.5,29.95,NE,53,0.0,0.0,97,0.00,,,0.00,meteobridge,2017-05-29 07:55:00,
2017-05-29 03:00:00,73.4,72.5,29.95,NE,53,0.0,0.0,97,0.00,,,0.00,meteobridge,2017-05-29 08:00:00,
2017-05-29 03:05:00,73.4,72.5,29.94,NE,53,0.0,0.0,97,0.00,,,0.00,meteobridge,2017-05-29 08:05:00,
2017-05-29 03:10:00,73.4,72.5,29.94,NE,53,0.0,0.0,97,0.00,,,0.00,meteobridge,2017-05-29 08:10:00,
2017-05-29 03:15:00,73.4,72.5,29.94,NE,53,0.0,0.0,97,0.00,,,0.00,meteobridge,2017-05-29 08:15:00,
2017-05-29 03:20:00,73.2,72.3,29.94,NE,53,0.0,0.0,97,0.00,,,0.00,meteobridge,2017-05-29 08:20:00,
2017-05-29 03:25:00,73.2,72.3,29.93,NE,53,0.0,0.0,97,0.00,,,0.00,meteobridge,2017-05-29 08:25:00,
2017-05-29 03:30:00,73.2,72.3,29.93,NE,53,0.0,0.0,97,0.00,,,0.00,meteobridge,2017-05-29 08:30:00,
2017-05-29 03:35:00,73.0,72.1,29.93,NE,53,0.0,0.0,97,0.00,,,0.00,meteobridge,2017-05-29 08:35:00,
2017-05-29 03:40:00,73.0,72.1,29.93,NE,53,0.0,0.0,97,0.00,,,0.00,meteobridge,2017-05-29 08:40:00,
2017-05-29 03:45:00,73.0,72.1,29.93,NE,53,0.0,0.0,97,0.00,,,0.00,meteobridge,2017-05-29 08:45:00,
2017-05-29 03:50:00,72.9,72.0,29.93,NE,53,0.0,0.0,97,0.00,,,0.00,meteobridge,2017-05-29 08:50:00,
2017-05-29 03:55:00,72.9,72.0,29.93,NE,53,0.0,0.0,97,0.00,,,0.00,meteobridge,2017-05-29 08:55:00,
2017-05-29 04:05:00,72.7,71.8,29.93,NE,53,0.0,0.0,97,0.00,,,0.00,meteobridge,2017-05-29 09:05:00,
2017-05-29 04:10:00,72.9,72.0,29.93,NE,53,0.0,0.0,97,0.00,,,0.00,meteobridge,2017-05-29 09:10:00,
2017-05-29 04:15:00,72.9,72.0,29.93,NE,53,0.0,0.0,97,0.00,,,0.00,meteobridge,2017-05-29 09:15:00,
2017-05-29 04:20:00,73.0,72.5,29.92,NE,53,0.0,1.0,98,0.00,,,0.00,meteobridge,2017-05-29 09:20:00,
2017-05-29 04:26:00,73.2,72.7,29.92,ENE,58,0.0,0.0,98,0.00,,,0.00,meteobridge,2017-05-29 09:26:00,
2017-05-29 04:31:00,73.4,72.9,29.93,ENE,58,0.0,0.0,98,0.00,,,0.00,meteobridge,2017-05-29 09:31:00,
2017-05-29 04:32:00,73.4,72.9,29.93,ENE,58,0.0,1.0,98,0.00,,,0.00,meteobridge,2017-05-29 09:32:00,
2017-05-29 04:37:00,73.6,73.0,29.94,ENE,59,0.0,0.0,98,0.00,,,0.00,meteobridge,2017-05-29 09:37:00,
2017-05-29 04:42:00,73.6,73.0,29.93,ENE,59,0.0,0.0,98,0.00,,,0.00,meteobridge,2017-05-29 09:42:00,
2017-05-29 04:47:00,73.6,73.0,29.94,ENE,59,0.0,0.0,98,0.00,,,0.00,meteobridge,2017-05-29 09:47:00,
2017-05-29 04:52:00,73.6,73.0,29.94,ENE,59,0.0,0.0,98,0.00,,,0.00,meteobridge,2017-05-29 09:52:00,
2017-05-29 04:57:00,73.6,73.0,29.93,ENE,59,0.9,1.0,98,0.00,,,0.00,meteobridge,2017-05-29 09:57:00,
2017-05-29 05:02:00,73.6,73.0,29.92,ENE,60,0.0,1.0,98,0.00,,,0.00,meteobridge,2017-05-29 10:02:00,
2017-05-29 05:07:00,73.6,73.0,29.93,ENE,60,0.0,0.0,98,0.00,,,0.00,meteobridge,2017-05-29 10:07:00,
2017-05-29 05:12:00,73.6,73.0,29.93,ENE,60,0.0,0.0,98,0.00,,,0.00,meteobridge,2017-05-29 10:12:00,
2017-05-29 05:17:00,73.6,73.0,29.93,ENE,60,0.0,0.0,98,0.00,,,0.00,meteobridge,2017-05-29 10:17:00,
2017-05-29 05:22:00,73.6,73.0,29.94,ENE,60,0.0,0.0,98,0.00,,,0.00,meteobridge,2017-05-29 10:22:00,
2017-05-29 05:27:00,73.6,73.0,29.94,ENE,65,0.0,1.0,98,0.01,,,0.01,meteobridge,2017-05-29 10:27:00,
2017-05-29 05:32:00,73.8,73.2,29.95,ENE,65,0.0,0.0,98,0.04,,,0.04,meteobridge,2017-05-29 10:32:00,
2017-05-29 05:37:00,73.9,73.4,29.95,SE,140,0.0,0.0,98,0.08,,,0.09,meteobridge,2017-05-29 10:37:00,
2017-05-29 05:43:00,74.1,73.6,29.96,SE,140,0.0,0.0,98,0.13,,,0.13,meteobridge,2017-05-29 10:43:00,
2017-05-29 05:48:00,74.1,73.6,29.98,ESE,119,2.0,3.0,98,0.23,,,0.24,meteobridge,2017-05-29 10:48:00,
2017-05-29 05:53:00,72.1,71.2,29.98,NW,316,6.0,10.0,97,0.39,,,0.42,meteobridge,2017-05-29 10:53:00,
2017-05-29 05:58:00,71.1,70.2,29.98,WNW,303,0.0,3.0,97,0.60,,,0.61,meteobridge,2017-05-29 10:58:00,
2017-05-29 06:03:00,70.3,69.4,29.98,NW,304,2.0,3.0,97,0.66,,,0.67,meteobridge,2017-05-29 11:03:00,
2017-05-29 06:08:00,69.6,68.7,29.98,NW,304,0.0,0.0,97,0.68,,,0.68,meteobridge,2017-05-29 11:08:00,
2017-05-29 06:13:00,69.4,68.5,29.98,NW,304,0.0,0.0,97,0.69,,,0.69,meteobridge,2017-05-29 11:13:00,
2017-05-29 06:18:00,69.1,68.2,29.99,NW,304,0.0,0.0,97,0.69,,,0.69,meteobridge,2017-05-29 11:18:00,
2017-05-29 06:23:00,69.1,68.2,29.99,NW,304,0.0,0.0,97,0.69,,,0.69,meteobridge,2017-05-29 11:23:00,
2017-05-29 06:28:00,68.9,68.0,29.99,NW,304,0.0,0.0,97,0.69,,,0.70,meteobridge,2017-05-29 11:28:00,
2017-05-29 06:33:00,68.9,68.0,29.98,SSW,202,0.0,0.0,97,0.66,,,0.70,meteobridge,2017-05-29 11:33:00,
2017-05-29 06:34:00,68.9,68.0,29.98,SSW,202,0.0,0.0,97,0.65,,,0.70,meteobridge,2017-05-29 11:34:00,
2017-05-29 06:39:00,68.7,67.8,29.98,SSW,202,0.0,0.0,97,0.60,,,0.70,meteobridge,2017-05-29 11:39:00,
2017-05-29 06:44:00,68.7,67.8,29.99,SSW,204,0.0,0.0,97,0.56,,,0.70,meteobridge,2017-05-29 11:44:00,
2017-05-29 06:50:00,68.7,67.8,30.00,SSW,207,0.0,0.0,97,0.39,,,0.70,meteobridge,2017-05-29 11:50:00,
2017-05-29 06:55:00,68.7,68.2,30.00,SSW,208,0.0,0.0,98,0.22,,,0.70,meteobridge,2017-05-29 11:55:00,
2017-05-29 07:00:00,68.7,68.2,29.98,SSW,208,0.0,0.0,98,0.05,,,0.70,meteobridge,2017-05-29 12:00:00,
2017-05-29 07:05:00,68.7,68.2,29.99,SSW,208,0.0,0.0,98,0.03,,,0.70,meteobridge,2017-05-29 12:05:00,
2017-05-29 07:10:00,68.7,68.2,29.98,SSW,208,0.0,0.0,98,0.02,,,0.70,meteobridge,2017-05-29 12:10:00,
2017-05-29 07:15:00,68.7,68.2,29.99,SSE,158,0.0,7.0,98,0.01,,,0.70,meteobridge,2017-05-29 12:15:00,
2017-05-29 07:20:00,68.7,68.2,29.99,SE,134,2.0,6.0,98,0.01,,,0.71,meteobridge,2017-05-29 12:20:00,
2017-05-29 07:25:00,68.7,68.2,29.99,SE,142,2.9,6.0,98,0.02,,,0.71,meteobridge,2017-05-29 12:25:00,
2017-05-29 07:30:00,68.7,68.2,30.00,SE,142,2.0,2.0,98,0.01,,,0.71,meteobridge,2017-05-29 12:30:00,
2017-05-29 07:35:00,68.7,68.2,29.98,SE,144,0.0,5.0,98,0.01,,,0.71,meteobridge,2017-05-29 12:35:00,
2017-05-29 07:40:00,68.7,68.2,29.98,ENE,65,0.9,5.0,98,0.01,,,0.71,meteobridge,2017-05-29 12:40:00,
2017-05-29 07:45:00,68.7,68.2,29.98,ESE,121,0.0,5.0,98,0.01,,,0.71,meteobridge,2017-05-29 12:45:00,
2017-05-29 07:50:00,68.7,68.2,29.98,ESE,121,0.0,0.0,98,0.01,,,0.71,meteobridge,2017-05-29 12:50:00,
2017-05-29 07:55:00,68.7,68.2,29.98,ESE,121,0.0,0.0,98,0.01,,,0.71,meteobridge,2017-05-29 12:55:00,
2017-05-29 08:00:00,68.9,68.4,29.99,ESE,121,0.0,0.0,98,0.01,,,0.71,meteobridge,2017-05-29 13:00:00,
2017-05-29 08:05:00,69.1,68.5,29.99,ESE,121,0.0,0.0,98,0.01,,,0.71,meteobridge,2017-05-29 13:05:00,
2017-05-29 08:10:00,69.3,68.7,29.99,ESE,121,0.0,0.0,98,0.01,,,0.71,meteobridge,2017-05-29 13:10:00,
2017-05-29 08:16:00,69.3,68.7,29.99,ESE,121,0.0,0.0,98,0.01,,,0.71,meteobridge,2017-05-29 13:16:00,
2017-05-29 08:21:00,69.4,68.9,29.99,ESE,121,0.0,0.0,98,0.00,,,0.71,meteobridge,2017-05-29 13:21:00,
2017-05-29 08:26:00,69.6,69.1,30.00,ESE,121,0.9,3.0,98,0.00,,,0.71,meteobridge,2017-05-29 13:26:00,
2017-05-29 08:31:00,70.0,69.6,30.00,SE,126,2.9,3.0,99,0.00,,,0.71,meteobridge,2017-05-29 13:31:00,
2017-05-29 08:36:00,70.3,70.0,30.00,SE,126,0.0,0.0,99,0.00,,,0.71,meteobridge,2017-05-29 13:36:00,
2017-05-29 08:41:00,70.5,70.2,30.00,SE,126,0.0,0.0,99,0.00,,,0.71,meteobridge,2017-05-29 13:41:00,
2017-05-29 08:46:00,70.9,70.5,30.00,SE,127,0.0,0.0,99,0.00,,,0.71,meteobridge,2017-05-29 13:46:00,
2017-05-29 08:51:00,71.4,71.1,30.00,SE,127,0.0,0.0,99,0.00,,,0.71,meteobridge,2017-05-29 13:51:00,
2017-05-29 08:56:00,72.0,71.6,30.00,SE,127,0.0,0.0,99,0.00,,,0.71,meteobridge,2017-05-29 13:56:00,
2017-05-29 09:01:00,72.5,72.1,30.00,SE,127,0.9,3.0,99,0.00,,,0.71,meteobridge,2017-05-29 14:01:00,
2017-05-29 09:06:00,73.0,72.7,30.00,SE,127,0.0,3.0,99,0.00,,,0.71,meteobridge,2017-05-29 14:06:00,
2017-05-29 09:11:00,73.8,73.4,30.00,SSE,154,2.9,5.0,99,0.00,,,0.71,meteobridge,2017-05-29 14:11:00,
2017-05-29 09:16:00,74.1,73.8,30.00,SSE,147,2.0,7.0,99,0.00,,,0.71,meteobridge,2017-05-29 14:16:00,
2017-05-29 09:21:00,74.8,74.5,30.01,SSE,148,0.0,0.0,99,0.00,,,0.71,meteobridge,2017-05-29 14:21:00,
2017-05-29 09:26:00,75.0,74.7,30.01,SSE,152,0.0,1.0,99,0.00,,,0.71,meteobridge,2017-05-29 14:26:00,
2017-05-29 09:31:00,74.8,74.5,30.01,SSE,155,4.0,4.0,99,0.00,,,0.71,meteobridge,2017-05-29 14:31:00,
2017-05-29 09:32:00,74.8,74.5,30.01,SSE,155,0.0,5.0,99,0.00,,,0.71,meteobridge,2017-05-29 14:32:00,
2017-05-29 09:37:00,74.7,74.3,30.01,SSE,161,4.0,7.0,99,0.00,,,0.71,meteobridge,2017-05-29 14:37:00,
2017-05-29 09:42:00,74.8,74.3,30.01,SSE,161,0.0,0.0,98,0.00,,,0.71,meteobridge,2017-05-29 14:42:00,
2017-05-29 09:47:00,75.6,75.0,30.01,SSE,161,0.0,0.0,98,0.00,,,0.71,meteobridge,2017-05-29 14:47:00,
2017-05-29 09:52:00,75.6,75.0,30.01,SSE,160,0.0,0.0,98,0.00,,,0.71,meteobridge,2017-05-29 14:52:00,
2017-05-29 09:57:00,75.6,75.0,30.01,SSE,150,0.0,0.0,98,0.00,,,0.71,meteobridge,2017-05-29 14:57:00,
2017-05-29 10:02:00,75.7,74.8,30.02,SSE,151,0.0,2.0,97,0.00,,,0.71,meteobridge,2017-05-29 15:02:00,
2017-05-29 10:07:00,76.3,75.4,30.02,South,169,0.0,7.0,97,0.00,,,0.71,meteobridge,2017-05-29 15:07:00,
2017-05-29 10:13:00,76.8,75.9,30.01,SSE,167,0.0,1.0,97,0.00,,,0.71,meteobridge,2017-05-29 15:13:00,
2017-05-29 10:18:00,77.2,75.6,30.02,SSE,155,0.0,1.0,95,0.00,,,0.71,meteobridge,2017-05-29 15:18:00,
2017-05-29 10:23:00,77.5,75.9,30.01,South,178,4.0,8.0,95,0.00,,,0.71,meteobridge,2017-05-29 15:23:00,
2017-05-29 10:28:00,78.3,76.5,30.01,SSE,161,0.0,6.0,94,0.00,,,0.71,meteobridge,2017-05-29 15:28:00,
2017-05-29 10:33:00,79.2,77.0,30.02,SSE,160,0.0,6.0,93,0.00,,,0.71,meteobridge,2017-05-29 15:33:00,
2017-05-29 10:38:00,79.5,76.6,30.02,SSE,165,0.0,5.0,91,0.00,,,0.71,meteobridge,2017-05-29 15:38:00,
2017-05-29 10:43:00,79.5,76.3,30.02,SSE,161,4.9,5.0,90,0.00,,,0.71,meteobridge,2017-05-29 15:43:00,
2017-05-29 10:48:00,79.7,76.1,30.02,SSE,161,0.0,0.0,89,0.00,,,0.71,meteobridge,2017-05-29 15:48:00,
2017-05-29 10:53:00,79.9,77.0,30.03,NNE,26,0.0,2.0,91,0.00,,,0.71,meteobridge,2017-05-29 15:53:00,
2017-05-29 10:58:00,79.9,76.3,30.03,North,5,0.0,5.0,89,0.00,,,0.71,meteobridge,2017-05-29 15:58:00,
2017-05-29 11:03:00,79.9,76.3,30.02,North,5,0.0,2.0,89,0.00,,,0.71,meteobridge,2017-05-29 16:03:00,
2017-05-29 11:08:00,80.1,76.8,30.02,NNE,22,0.0,5.0,90,0.00,,,0.71,meteobridge,2017-05-29 16:08:00,
2017-05-29 11:13:00,80.1,76.8,30.02,NNE,22,0.0,0.0,90,0.00,,,0.71,meteobridge,2017-05-29 16:13:00,
2017-05-29 11:16:00,80.1,76.8,30.02,ENE,64,0.0,0.0,90,0.00,,,0.71,meteobridge,2017-05-29 16:16:00,
2017-05-29 11:21:00,80.1,76.8,30.02,ENE,62,0.0,0.0,90,0.00,,,0.71,meteobridge,2017-05-29 16:21:00,
2017-05-29 11:26:00,80.2,77.0,30.01,ENE,62,0.0,0.0,90,0.00,,,0.71,meteobridge,2017-05-29 16:26:00,
2017-05-29 11:31:00,80.2,77.0,30.01,SE,140,0.0,5.0,90,0.00,,,0.71,meteobridge,2017-05-29 16:31:00,
2017-05-29 11:36:00,80.6,77.4,30.02,SE,143,2.0,4.0,90,0.00,,,0.71,meteobridge,2017-05-29 16:36:00,